Time;durP1;ratioP1;P1;durP2;ratioP2;P2;SDS_P1;SDS_P2;PMS_P1;PMS_P2;Temp;Humidity;BMP_temperature;BMP_pressure;BME280_temperature;BME280_humidity;BME280_pressure;Samples;Min_cycle;Max_cycle;Signal;HPM_P1;HPM_P2
2024/01/28 00:00:36;;;;;;;;;;;;;;;21.33;23.40;99801.81;5033784;28;20013;-82
2024/01/28 00:03:03;;;;;;;;;;;;;;;21.84;22.85;99807.03;5033088;28;19927;-85
2024/01/28 00:05:29;;;;;;;;;;;;;;;22.27;22.09;99805.59;5033036;28;19967;-84
2024/01/28 00:07:55;;;;;;;;;;;;;;;22.37;22.21;99805.75;5021314;28;19921;-86
2024/01/28 00:10:21;;;;;;;;;;;;;;;21.91;22.82;99799.53;5031407;28;19927;-84
2024/01/28 00:12:48;;;;;;;;;;;;;;;21.48;23.13;99813.22;5021488;28;19928;-84
2024/01/28 00:15:14;;;;;;;;;;;;;;;20.16;25.66;99813.88;5036977;28;19955;-84
2024/01/28 00:17:40;;;;;;;;;;;;;;;20.57;24.32;99810.34;5042363;28;20369;-85
2024/01/28 00:20:06;;;;;;;;;;;;;;;20.26;24.81;99808.53;5021949;28;19924;-84
2024/01/28 00:22:32;;;;;;;;;;;;;;;20.89;24.06;99806.19;5048601;28;19917;-84
2024/01/28 00:24:59;;;;;;;;;;;;;;;21.70;23.03;99812.38;5046625;28;19940;-84
2024/01/28 00:27:25;;;;;;;;;;;;;;;22.18;22.20;99805.91;5021558;28;19921;-84
2024/01/28 00:29:51;;;;;;;;;;;;;;;22.07;22.45;99815.34;5031300;28;20425;-84
2024/01/28 00:32:17;;;;;;;;;;;;;;;22.19;22.37;99812.31;5032744;28;19948;-85
2024/01/28 00:34:43;;;;;;;;;;;;;;;22.85;21.31;99809.53;5032738;28;19924;-85
2024/01/28 00:37:10;;;;;;;;;;;;;;;23.35;20.91;99816.44;5032634;28;20360;-84
2024/01/28 00:39:36;;;;;;;;;;;;;;;23.61;20.70;99810.66;5026833;28;19944;-85
2024/01/28 00:42:04;;;;;;;;;;;;;;;23.93;20.14;99806.06;5017727;28;20021;-85
2024/01/28 00:44:30;;;;;;;;;;;;;;;24.12;20.07;99809.78;5027861;28;19925;-84
2024/01/28 00:46:57;;;;;;;;;;;;;;;23.92;20.12;99812.06;5023256;28;19963;-85
2024/01/28 00:49:29;;;;;;;;;;;;;;;23.56;20.52;99813.81;5032439;28;19963;-84
2024/01/28 00:51:56;;;;;;;;;;;;;;;22.99;21.25;99818.06;5033265;28;19972;-85
2024/01/28 00:54:25;;;;;;;;;;;;;;;22.96;21.15;99823.66;5032787;28;19967;-84
2024/01/28 00:56:54;;;;;;;;;;;;;;;22.64;21.38;99831.69;5034277;28;19925;-84
2024/01/28 00:59:20;;;;;;;;;;;;;;;22.46;21.54;99828.66;5028101;28;20282;-85
2024/01/28 01:01:46;;;;;;;;;;;;;;;22.58;21.84;99833.19;5021658;28;19922;-84
2024/01/28 01:04:12;;;;;;;;;;;;;;;23.09;21.13;99828.59;5023334;28;19917;-84
2024/01/28 01:06:41;;;;;;;;;;;;;;;23.01;21.13;99835.28;5023282;28;19921;-84
2024/01/28 01:09:07;;;;;;;;;;;;;;;23.42;20.67;99832.50;5046795;28;19986;-84
2024/01/28 01:11:33;;;;;;;;;;;;;;;23.63;20.49;99827.09;5031422;28;19988;-84
2024/01/28 01:13:59;;;;;;;;;;;;;;;23.87;20.20;99834.88;5023457;28;20477;-84
2024/01/28 01:16:26;;;;;;;;;;;;;;;23.56;20.38;99836.25;5038562;28;19921;-84
2024/01/28 01:18:52;;;;;;;;;;;;;;;23.70;19.98;99833.56;5035307;28;20473;-84
2024/01/28 01:21:18;;;;;;;;;;;;;;;23.75;19.97;99819.16;5036202;28;20577;-84
2024/01/28 01:23:44;;;;;;;;;;;;;;;23.88;19.73;99828.88;5056114;28;19921;-84
2024/01/28 01:26:10;;;;;;;;;;;;;;;;;;5017798;28;20413;-84
2024/01/28 01:28:36;;;;;;;;;;;;;;;23.88;19.47;99822.44;5028828;28;19921;-84
2024/01/28 01:31:02;;;;;;;;;;;;;;;23.19;19.67;99830.69;5035662;28;19921;-84
2024/01/28 01:33:28;;;;;;;;;;;;;;;23.20;19.95;99829.50;5035373;28;19929;-84
2024/01/28 01:35:55;;;;;;;;;;;;;;;22.75;20.50;99827.03;5035161;28;20377;-84
2024/01/28 01:38:21;;;;;;;;;;;;;;;23.08;20.15;99832.56;5034070;28;20414;-84
2024/01/28 01:40:47;;;;;;;;;;;;;;;23.31;20.22;99829.59;5022866;28;19949;-84
2024/01/28 01:43:15;;;;;;;;;;;;;;;23.66;19.84;99829.94;5020766;28;20349;-82
2024/01/28 01:45:42;;;;;;;;;;;;;;;23.95;19.84;99826.09;5017625;28;19921;-82
2024/01/28 01:48:10;;;;;;;;;;;;;;;24.27;19.46;99833.94;5018630;28;19922;-82
2024/01/28 01:50:36;;;;;;;;;;;;;;;23.85;20.06;99835.25;5029887;28;19917;-82
2024/01/28 01:53:04;;;;;;;;;;;;;;;24.04;19.68;99845.41;5027205;28;20060;-82
2024/01/28 01:55:31;;;;;;;;;;;;;;;24.30;19.09;99841.56;5024798;28;19929;-82
2024/01/28 01:57:58;;;;;;;;;;;;;;;24.26;19.67;99843.56;5019303;28;19921;-82
2024/01/28 02:00:24;;;;;;;;;;;;;;;22.79;20.86;99850.28;5033999;28;20340;-82
2024/01/28 02:02:50;;;;;;;;;;;;;;;22.52;21.49;99851.53;5034655;28;19921;-83
2024/01/28 02:05:16;;;;;;;;;;;;;;;23.13;20.91;99842.63;5026643;28;20059;-83
2024/01/28 02:07:42;;;;;;;;;;;;;;;23.25;20.94;99842.34;5016926;28;19929;-83
2024/01/28 02:10:09;;;;;;;;;;;;;;;23.49;20.94;99841.78;5033887;28;19929;-83
2024/01/28 02:12:36;;;;;;;;;;;;;;;23.74;20.64;99825.16;5034623;28;19960;-83
2024/01/28 02:15:06;;;;;;;;;;;;;;;23.77;20.90;99839.22;5026769;28;19930;-83
2024/01/28 02:17:32;;;;;;;;;;;;;;;23.69;20.97;99833.91;5021112;28;19943;-83
2024/01/28 02:19:59;;;;;;;;;;;;;;;23.99;20.73;99837.38;5034896;28;20020;-83
2024/01/28 02:22:25;;;;;;;;;;;;;;;24.23;20.36;99836.72;5023245;28;19921;-82
2024/01/28 02:24:51;;;;;;;;;;;;;;;24.54;20.09;99829.66;5015552;28;19918;-83
2024/01/28 02:27:17;;;;;;;;;;;;;;;24.59;20.02;99840.50;5026660;28;19928;-83
2024/01/28 02:29:43;;;;;;;;;;;;;;;24.82;20.07;99841.00;5031784;28;19956;-83
2024/01/28 02:32:10;;;;;;;;;;;;;;;24.96;20.00;99838.25;5030857;28;19975;-83
2024/01/28 02:34:36;;;;;;;;;;;;;;;24.61;20.09;99838.09;5035131;28;19921;-83
2024/01/28 02:37:02;;;;;;;;;;;;;;;24.09;20.93;99831.03;5030053;28;19965;-83
2024/01/28 02:39:28;;;;;;;;;;;;;;;23.18;21.97;99845.88;5025363;28;19921;-83
2024/01/28 02:41:54;;;;;;;;;;;;;;;22.76;22.70;99841.81;5026977;28;20302;-83
2024/01/28 02:44:20;;;;;;;;;;;;;;;22.18;23.53;99841.47;5029337;28;19968;-83
2024/01/28 02:46:46;;;;;;;;;;;;;;;22.61;23.13;99844.44;5028937;28;19944;-83
2024/01/28 02:49:12;;;;;;;;;;;;;;;23.08;22.75;99843.78;5026315;28;20371;-83
2024/01/28 02:51:38;;;;;;;;;;;;;;;22.90;22.81;99854.00;5020223;28;19956;-83
2024/01/28 02:54:05;;;;;;;;;;;;;;;23.26;22.47;99857.97;5017190;28;19925;-83
2024/01/28 02:56:31;;;;;;;;;;;;;;;24.03;21.68;99852.22;5033960;28;19940;-83
2024/01/28 02:58:57;;;;;;;;;;;;;;;24.70;20.82;99846.97;5033167;28;20301;-83
2024/01/28 03:01:23;;;;;;;;;;;;;;;25.20;20.15;99868.41;5029740;28;19929;-83
2024/01/28 03:03:49;;;;;;;;;;;;;;;25.34;20.03;99864.81;5029120;28;19917;-83
2024/01/28 03:06:15;;;;;;;;;;;;;;;25.47;20.21;99865.25;5031650;28;19928;-83
2024/01/28 03:08:41;;;;;;;;;;;;;;;25.61;19.71;99870.88;5034082;28;19921;-83
2024/01/28 03:11:07;;;;;;;;;;;;;;;25.67;19.65;99863.66;5024993;28;19928;-83
2024/01/28 03:13:33;;;;;;;;;;;;;;;25.78;19.48;99868.09;5032196;28;20023;-83
2024/01/28 03:15:59;;;;;;;;;;;;;;;25.89;19.65;99871.69;5018906;28;20060;-83
2024/01/28 03:18:25;;;;;;;;;;;;;;;25.97;19.46;99878.13;5033008;28;20063;-83
2024/01/28 03:20:52;;;;;;;;;;;;;;;25.89;19.43;99870.88;5034001;28;19921;-83
2024/01/28 03:23:19;;;;;;;;;;;;;;;25.71;19.77;99875.72;5030456;28;19928;-83
2024/01/28 03:25:45;;;;;;;;;;;;;;;25.41;20.13;99862.78;5034146;28;19917;-83
2024/01/28 03:28:11;;;;;;;;;;;;;;;25.33;20.35;99871.63;5039131;28;19959;-83
2024/01/28 03:30:37;;;;;;;;;;;;;;;24.87;20.90;99868.72;5031578;28;19953;-83
2024/01/28 03:33:03;;;;;;;;;;;;;;;24.62;20.98;99871.41;5031366;28;19957;-83
2024/01/28 03:35:29;;;;;;;;;;;;;;;24.26;21.52;99878.06;5034800;28;19927;-83
2024/01/28 03:37:55;;;;;;;;;;;;;;;24.24;21.61;99876.81;5031741;28;20286;-83
2024/01/28 03:40:21;;;;;;;;;;;;;;;24.42;21.53;99880.53;5044350;28;19963;-83
2024/01/28 03:42:47;;;;;;;;;;;;;;;24.64;21.32;99880.22;5039552;28;19921;-83
2024/01/28 03:45:13;;;;;;;;;;;;;;;24.38;21.34;99880.53;5044345;28;19924;-83
2024/01/28 03:47:39;;;;;;;;;;;;;;;24.25;21.47;99893.28;5033306;28;20015;-83
2024/01/28 03:50:06;;;;;;;;;;;;;;;24.39;21.48;99896.16;5032831;28;19944;-82
2024/01/28 03:52:32;;;;;;;;;;;;;;;24.50;21.36;99897.03;5036126;28;20037;-82
2024/01/28 03:54:58;;;;;;;;;;;;;;;24.87;21.03;99899.63;5041813;28;20401;-82
2024/01/28 03:57:24;;;;;;;;;;;;;;;24.88;21.12;99898.41;5040318;28;19939;-82
2024/01/28 03:59:50;;;;;;;;;;;;;;;24.67;21.37;99912.34;5039412;28;19916;-82
2024/01/28 04:02:17;;;;;;;;;;;;;;;24.87;21.13;99905.25;5037208;28;20012;-82
2024/01/28 04:04:43;;;;;;;;;;;;;;;25.03;21.10;99910.53;5022350;28;19921;-82
2024/01/28 04:07:09;;;;;;;;;;;;;;;25.14;20.88;99909.34;5034421;28;19959;-82
2024/01/28 04:09:38;;;;;;;;;;;;;;;25.21;20.62;99915.00;5033483;28;20305;-82
2024/01/28 04:12:05;;;;;;;;;;;;;;;25.51;20.47;99908.25;5034466;28;19966;-82
2024/01/28 04:14:31;;;;;;;;;;;;;;;25.68;20.39;99910.28;5030716;28;19971;-82
2024/01/28 04:16:57;;;;;;;;;;;;;;;25.57;20.21;99899.03;5029734;28;19995;-82
2024/01/28 04:19:23;;;;;;;;;;;;;;;25.28;20.94;99911.38;5035831;28;19917;-82
2024/01/28 04:21:49;;;;;;;;;;;;;;;25.31;20.78;99904.97;5031921;28;20299;-82
2024/01/28 04:24:15;;;;;;;;;;;;;;;25.33;20.91;99909.00;5032080;28;20362;-82
2024/01/28 04:26:42;;;;;;;;;;;;;;;25.28;20.79;99911.38;5034130;28;19920;-82
2024/01/28 04:29:08;;;;;;;;;;;;;;;25.10;20.88;99899.31;5032904;28;20011;-82
2024/01/28 04:31:34;;;;;;;;;;;;;;;25.35;20.82;99903.78;5038520;28;19976;-82
2024/01/28 04:34:00;;;;;;;;;;;;;;;25.48;20.38;99907.06;5050350;28;20419;-82
2024/01/28 04:36:26;;;;;;;;;;;;;;;25.24;20.79;99908.59;5031921;28;19928;-82
2024/01/28 04:38:52;;;;;;;;;;;;;;;25.09;21.12;99908.91;5050225;28;19921;-82
2024/01/28 04:41:18;;;;;;;;;;;;;;;25.07;21.20;99905.72;5030499;28;19928;-82
2024/01/28 04:43:44;;;;;;;;;;;;;;;25.08;20.88;99907.34;5032339;28;19983;-82
2024/01/28 04:46:12;;;;;;;;;;;;;;;25.09;20.92;99908.91;5035097;28;19921;-82
2024/01/28 04:48:38;;;;;;;;;;;;;;;24.95;21.29;99909.69;5037288;28;20341;-82
2024/01/28 04:51:05;;;;;;;;;;;;;;;25.05;20.84;99916.53;5033873;28;19925;-82
2024/01/28 04:53:31;;;;;;;;;;;;;;;25.04;20.97;99912.94;5035745;28;19921;-82
2024/01/28 04:55:57;;;;;;;;;;;;;;;25.40;20.71;99922.25;5038705;28;19936;-82
2024/01/28 04:58:23;;;;;;;;;;;;;;;25.62;20.41;99926.75;5034233;28;19920;-82
2024/01/28 05:00:50;;;;;;;;;;;;;;;25.63;20.43;99921.91;5038154;28;19929;-82
2024/01/28 05:03:16;;;;;;;;;;;;;;;25.54;20.40;99922.31;5032231;28;19921;-82
2024/01/28 05:05:42;;;;;;;;;;;;;;;25.37;20.83;99925.88;5044526;28;20332;-82
2024/01/28 05:08:09;;;;;;;;;;;;;;;25.27;21.02;99924.66;5025799;28;20000;-82
2024/01/28 05:10:35;;;;;;;;;;;;;;;25.46;20.74;99933.97;5032455;28;19952;-82
2024/01/28 05:13:01;;;;;;;;;;;;;;;25.68;20.34;99933.59;5025484;28;20317;-82
2024/01/28 05:15:27;;;;;;;;;;;;;;;25.93;20.42;99939.22;5036776;28;19925;-82
2024/01/28 05:28:27;;;;;;;;;;;;;;;26.04;19.76;99954.13;5116180;27;19916;-96
2024/01/28 05:30:53;;;;;;;;;;;;;;;25.17;20.64;99966.78;5113105;28;19920;-96
2024/01/28 05:33:20;;;;;;;;;;;;;;;24.77;21.12;99964.19;5108428;28;19978;-96
2024/01/28 05:35:46;;;;;;;;;;;;;;;25.01;20.84;99967.13;5099625;28;19962;-96
2024/01/28 05:38:12;;;;;;;;;;;;;;;25.35;20.61;99971.25;5097897;28;19924;-96
2024/01/28 05:40:38;;;;;;;;;;;;;;;25.09;20.83;99968.75;5111603;28;19920;-96
2024/01/28 05:43:04;;;;;;;;;;;;;;;24.41;21.32;99983.59;5108395;28;20319;-96
2024/01/28 05:45:30;;;;;;;;;;;;;;;24.27;21.51;99982.72;5109069;28;19935;-96
2024/01/28 05:48:01;;;;;;;;;;;;;;;24.60;21.30;99983.34;5099936;28;19917;-96
2024/01/28 06:04:22;;;;;;;;;;;;;;;24.49;21.75;99984.47;5066121;27;2014228;-82
2024/01/28 06:06:48;;;;;;;;;;;;;;;22.85;23.05;99994.38;5126133;28;19920;-82
2024/01/28 06:09:14;;;;;;;;;;;;;;;23.28;23.38;99993.75;5125637;28;20379;-82
2024/01/28 06:11:43;;;;;;;;;;;;;;;24.04;22.52;99994.94;5118279;28;20436;-81
2024/01/28 06:14:10;;;;;;;;;;;;;;;24.65;22.10;99980.16;5119675;28;20010;-82
2024/01/28 06:16:36;;;;;;;;;;;;;;;24.92;21.79;99982.75;5118815;27;19919;-82
2024/01/28 06:19:02;;;;;;;;;;;;;;;24.65;22.07;99980.16;5117853;28;19919;-82
2024/01/28 06:21:28;;;;;;;;;;;;;;;24.28;22.66;99998.34;5131330;28;19923;-82
2024/01/28 08:43:54;;;;;;;;;;;;;;;22.85;28.50;100067.19;5116948;27;20453;-82
2024/01/28 08:46:20;;;;;;;;;;;;;;;23.08;27.89;100073.53;5116777;27;19939;-84
2024/01/28 08:48:52;;;;;;;;;;;;;;;23.27;27.59;100072.56;5117458;28;19920;-83
2024/01/28 08:51:19;;;;;;;;;;;;;;;24.19;25.91;100082.09;5113967;27;19923;-83
2024/01/28 08:53:45;;;;;;;;;;;;;;;23.35;26.74;100082.75;5111288;27;19924;-85
2024/01/28 08:56:11;;;;;;;;;;;;;;;22.61;27.40;100079.63;5111588;28;19927;-85
2024/01/28 08:58:37;;;;;;;;;;;;;;;23.16;26.91;100077.25;5119205;28;19923;-86
2024/01/28 09:01:05;;;;;;;;;;;;;;;22.34;28.00;100079.94;5118870;27;19923;-85
2024/01/28 09:03:31;;;;;;;;;;;;;;;19.80;32.80;100093.75;5114881;28;20010;-86
2024/01/28 09:05:57;;;;;;;;;;;;;;;20.30;31.58;100087.56;5113398;28;19920;-84
2024/01/28 09:08:23;;;;;;;;;;;;;;;21.94;28.74;100086.03;5109530;28;19926;-84
2024/01/28 09:10:49;;;;;;;;;;;;;;;21.97;28.50;100088.09;5112981;28;19951;-84
2024/01/28 09:13:15;;;;;;;;;;;;;;;22.47;28.04;100085.00;5114403;28;19959;-83
2024/01/28 09:15:41;;;;;;;;;;;;;;;23.00;27.19;100091.44;5109811;28;20411;-85
2024/01/28 09:18:07;;;;;;;;;;;;;;;23.27;26.86;100087.41;5112764;28;19915;-86
2024/01/28 09:20:33;;;;;;;;;;;;;;;23.94;26.11;100093.84;5118375;27;19927;-82
2024/01/28 09:22:59;;;;;;;;;;;;;;;24.35;25.22;100102.28;5115055;28;19945;-82
2024/01/28 09:25:28;;;;;;;;;;;;;;;24.11;25.37;100103.66;5112554;28;19928;-82
2024/01/28 09:27:55;;;;;;;;;;;;;;;23.40;26.23;100093.63;5119034;27;19920;-82
2024/01/28 09:30:21;;;;;;;;;;;;;;;23.61;26.01;100093.88;5113648;28;20003;-82
2024/01/28 09:32:47;;;;;;;;;;;;;;;23.65;26.26;100105.94;5113644;28;19938;-82
2024/01/28 09:35:13;;;;;;;;;;;;;;;24.01;25.34;100107.16;5107990;28;19924;-82
2024/01/28 09:37:39;;;;;;;;;;;;;;;24.24;25.39;100110.63;5113179;28;19927;-83
2024/01/28 09:40:06;;;;;;;;;;;;;;;24.44;25.02;100097.97;5110465;28;20406;-83
2024/01/28 09:42:35;;;;;;;;;;;;;;;24.35;25.15;100093.88;5114858;28;19924;-84
2024/01/28 09:45:02;;;;;;;;;;;;;;;24.90;24.60;100101.16;5105141;28;19920;-83
2024/01/28 09:47:28;;;;;;;;;;;;;;;24.88;24.57;100103.53;5095683;28;19916;-84
2024/01/28 09:49:55;;;;;;;;;;;;;;;24.60;24.93;100106.09;5104655;28;19958;-83
2024/01/28 09:52:22;;;;;;;;;;;;;;;24.74;24.32;100107.03;5103496;28;19965;-84
2024/01/28 09:54:48;;;;;;;;;;;;;;;24.62;24.68;100104.53;5100267;28;20068;-84
2024/01/28 09:57:14;;;;;;;;;;;;;;;24.79;24.35;100102.28;5101490;28;20094;-83
2024/01/28 09:59:40;;;;;;;;;;;;;;;24.87;23.96;100107.56;5105146;28;19924;-83
2024/01/28 10:02:07;;;;;;;;;;;;;;;25.02;23.90;100111.28;5102216;28;20023;-83
2024/01/28 10:04:33;;;;;;;;;;;;;;;25.10;23.78;100112.94;5096771;28;19927;-83
2024/01/28 10:07:02;;;;;;;;;;;;;;;24.02;25.18;100114.38;5103941;28;19920;-83
2024/01/28 10:09:29;;;;;;;;;;;;;;;24.03;25.14;100110.38;5102965;28;19970;-82
2024/01/28 10:11:59;;;;;;;;;;;;;;;24.41;24.71;100112.00;5101291;28;19924;-83
2024/01/28 10:14:25;;;;;;;;;;;;;;;23.66;25.26;100109.56;5097121;28;19924;-83
2024/01/28 10:16:52;;;;;;;;;;;;;;;24.11;24.87;100114.88;5105408;28;20011;-83
2024/01/28 10:19:18;;;;;;;;;;;;;;;24.24;24.97;100116.25;5096385;28;19921;-83
2024/01/28 10:21:44;;;;;;;;;;;;;;;23.58;25.63;100119.06;5098630;28;19920;-83
2024/01/28 10:24:11;;;;;;;;;;;;;;;23.64;25.93;100121.16;5097249;28;20269;-82
2024/01/28 10:26:37;;;;;;;;;;;;;;;23.18;26.21;100128.09;5096903;28;19928;-84
2024/01/28 10:29:06;;;;;;;;;;;;;;;23.49;25.96;100122.16;5093613;28;20022;-82
2024/01/28 10:31:32;;;;;;;;;;;;;;;23.60;25.41;100119.50;5098263;28;20294;-83
2024/01/28 10:33:58;;;;;;;;;;;;;;;23.66;25.48;100109.56;5100434;28;20384;-82
2024/01/28 10:36:25;;;;;;;;;;;;;;;23.56;25.81;100102.63;5097135;28;19916;-84
2024/01/28 10:38:56;;;;;;;;;;;;;;;23.34;25.84;100111.91;5106669;28;19927;-84
2024/01/28 10:41:22;;;;;;;;;;;;;;;24.20;24.79;100112.56;5096490;28;20373;-83
2024/01/28 10:43:56;;;;;;;;;;;;;;;23.63;25.22;100108.31;5096397;28;20326;-83
2024/01/28 10:46:39;;;;;;;;;;;;;;;23.42;25.88;100107.25;5097168;28;19927;-82
2024/01/28 10:49:09;;;;;;;;;;;;;;;24.58;24.67;100103.69;5095581;28;20380;-83
2024/01/28 10:51:35;;;;;;;;;;;;;;;24.63;24.40;100100.53;5100895;28;19985;-83
2024/01/28 10:54:03;;;;;;;;;;;;;;;25.30;23.99;100098.19;5100207;28;19919;-83
2024/01/28 10:56:31;;;;;;;;;;;;;;;25.51;23.39;100089.06;5102654;28;20341;-82
2024/01/28 10:58:57;;;;;;;;;;;;;;;25.23;23.76;100091.72;5096445;28;19936;-82
2024/01/28 11:01:24;;;;;;;;;;;;;;;24.70;24.33;100094.97;5093857;28;19924;-83
2024/01/28 11:03:51;;;;;;;;;;;;;;;24.29;24.95;100098.25;5102855;28;19926;-84
2024/01/28 11:06:17;;;;;;;;;;;;;;;24.56;24.63;100094.88;5095906;28;19945;-84
2024/01/28 11:08:44;;;;;;;;;;;;;;;25.28;23.86;100083.72;5096171;28;19955;-83
2024/01/28 11:11:12;;;;;;;;;;;;;;;25.00;23.64;100094.81;5096371;28;19946;-84
2024/01/28 11:13:38;;;;;;;;;;;;;;;24.85;23.74;100098.72;5104543;28;19963;-83
2024/01/28 11:16:10;;;;;;;;;;;;;;;24.88;24.06;100105.56;5100445;28;19927;-83
2024/01/28 11:18:36;;;;;;;;;;;;;;;24.91;23.97;100105.59;5096407;28;20296;-83
2024/01/28 11:21:12;;;;;;;;;;;;;;;25.33;23.94;100088.16;5097456;28;19924;-83
2024/01/28 11:23:41;;;;;;;;;;;;;;;25.57;23.30;100100.75;5098819;28;20053;-84
2024/01/28 11:26:11;;;;;;;;;;;;;;;25.66;23.08;100098.38;5096671;28;19920;-83
2024/01/28 11:28:37;;;;;;;;;;;;;;;25.45;23.50;100095.47;5093678;28;20400;-84
2024/01/28 11:31:03;;;;;;;;;;;;;;;24.36;24.19;100107.53;5097422;28;19927;-83
2024/01/28 11:33:33;;;;;;;;;;;;;;;23.59;25.74;100106.66;5091489;28;19920;-82
2024/01/28 11:36:01;;;;;;;;;;;;;;;24.17;24.76;100104.94;5096517;28;19927;-82
2024/01/28 11:38:33;;;;;;;;;;;;;;;24.36;24.63;100110.34;5100419;28;20024;-83
2024/01/28 11:40:59;;;;;;;;;;;;;;;24.67;24.52;100114.59;5098970;28;19920;-82
2024/01/28 11:43:25;;;;;;;;;;;;;;;24.98;23.94;100111.25;5091940;28;19989;-82
2024/01/28 11:45:52;;;;;;;;;;;;;;;24.89;24.04;100109.97;5097820;28;19920;-82
2024/01/28 11:48:18;;;;;;;;;;;;;;;25.24;23.82;100113.84;5099416;28;19920;-82
2024/01/28 11:50:45;;;;;;;;;;;;;;;25.38;23.65;100110.28;5099925;28;20604;-82
2024/01/28 11:53:11;;;;;;;;;;;;;;;25.54;23.56;100109.97;5099652;28;19932;-82
2024/01/28 11:55:37;;;;;;;;;;;;;;;25.07;24.00;100111.72;5097104;28;20014;-82
2024/01/28 11:58:04;;;;;;;;;;;;;;;25.13;24.12;100110.16;5096056;28;20384;-82
2024/01/28 12:00:30;;;;;;;;;;;;;;;24.49;24.41;100110.84;5101055;28;19920;-83
2024/01/28 12:02:56;;;;;;;;;;;;;;;22.65;27.08;100127.31;5107809;28;20273;-83
2024/01/28 12:05:23;;;;;;;;;;;;;;;23.75;25.70;100119.28;5100270;28;19923;-82
2024/01/28 12:07:49;;;;;;;;;;;;;;;23.74;26.13;100116.84;5105760;28;19926;-83
2024/01/28 12:10:16;;;;;;;;;;;;;;;24.25;25.19;100120.66;5104969;28;19920;-83
2024/01/28 12:12:42;;;;;;;;;;;;;;;24.64;24.42;100112.59;5096005;28;20419;-84
2024/01/28 12:15:09;;;;;;;;;;;;;;;24.79;24.33;100121.94;5097259;28;20048;-83
2024/01/28 12:17:36;;;;;;;;;;;;;;;23.32;25.71;100119.91;5104572;28;19931;-82
2024/01/28 12:20:03;;;;;;;;;;;;;;;23.10;27.33;100120.81;5097212;28;20392;-82
2024/01/28 12:22:36;;;;;;;;;;;;;;;24.37;25.04;100123.16;5090719;27;20771;-81
2024/01/28 12:25:09;;;;;;;;;;;;;;;24.86;23.95;100122.00;5108033;28;19973;-82
2024/01/28 12:27:36;;;;;;;;;;;;;;;24.46;24.71;100125.66;5101095;28;19920;-82
2024/01/28 12:30:02;;;;;;;;;;;;;;;25.42;23.82;100117.53;5100343;28;19970;-81
2024/01/28 12:32:29;;;;;;;;;;;;;;;25.84;23.16;100113.28;5098680;28;19920;-82
2024/01/28 12:34:57;;;;;;;;;;;;;;;25.74;23.08;100120.50;5098232;28;19920;-82
2024/01/28 12:37:24;;;;;;;;;;;;;;;25.41;23.13;100120.75;5089035;28;19924;-83
2024/01/28 12:39:50;;;;;;;;;;;;;;;24.12;25.13;100124.13;5101597;28;19928;-82
2024/01/28 12:42:18;;;;;;;;;;;;;;;24.89;23.91;100127.66;5097968;28;19967;-82
2024/01/28 12:44:44;;;;;;;;;;;;;;;24.26;24.48;100127.88;5098967;28;19947;-82
2024/01/28 12:47:10;;;;;;;;;;;;;;;24.02;25.27;100118.00;5100535;28;20002;-83
2024/01/28 12:49:36;;;;;;;;;;;;;;;24.38;24.35;100115.56;5098776;28;19920;-82
2024/01/28 12:52:03;;;;;;;;;;;;;;;24.26;24.82;100115.84;5100208;28;19932;-84
2024/01/28 12:54:29;;;;;;;;;;;;;;;24.49;24.46;100111.66;5099912;28;20388;-82
2024/01/28 12:56:55;;;;;;;;;;;;;;;23.73;25.88;100109.66;5098495;28;20312;-82
2024/01/28 12:59:21;;;;;;;;;;;;;;;22.94;26.52;100114.56;5093790;28;19934;-82
2024/01/28 13:01:47;;;;;;;;;;;;;;;24.14;24.80;100104.88;5098712;28;19955;-84
2024/01/28 13:04:13;;;;;;;;;;;;;;;25.23;23.74;100103.78;5099307;28;19935;-83
2024/01/28 13:06:39;;;;;;;;;;;;;;;25.96;23.30;100112.94;5101681;28;19924;-83
2024/01/28 13:09:09;;;;;;;;;;;;;;;25.78;23.13;100109.28;5098268;28;19920;-82
2024/01/28 13:11:37;;;;;;;;;;;;;;;25.95;22.55;100114.16;5097803;28;19930;-83
2024/01/28 13:14:03;;;;;;;;;;;;;;;26.30;22.78;100119.06;5102646;28;19924;-83
2024/01/28 13:16:30;;;;;;;;;;;;;;;26.76;22.16;100117.13;5099832;28;19920;-82
2024/01/28 13:18:56;;;;;;;;;;;;;;;26.42;21.83;100122.28;5095775;28;19916;-82
2024/01/28 13:21:22;;;;;;;;;;;;;;;26.12;22.51;100121.03;5102747;28;19920;-82
2024/01/28 13:23:48;;;;;;;;;;;;;;;25.78;22.35;100120.53;5101677;28;19927;-84
2024/01/28 13:26:18;;;;;;;;;;;;;;;25.85;22.49;100123.38;5102627;28;19927;-84
2024/01/28 13:28:44;;;;;;;;;;;;;;;25.44;22.99;100119.19;5101783;28;20358;-82
2024/01/28 13:31:10;;;;;;;;;;;;;;;25.39;23.29;100117.53;5102569;28;20304;-83
2024/01/28 13:33:36;;;;;;;;;;;;;;;24.93;24.51;100125.66;5109432;28;19923;-82
2024/01/28 13:36:03;;;;;;;;;;;;;;;24.46;23.82;100122.84;5108397;28;19951;-83
2024/01/28 13:38:29;;;;;;;;;;;;;;;24.36;23.90;100123.56;5104756;28;19916;-82
2024/01/28 13:40:55;;;;;;;;;;;;;;;24.73;23.26;100129.91;5109337;28;19935;-82
2024/01/28 13:43:21;;;;;;;;;;;;;;;24.50;23.70;100135.75;5109265;28;19923;-82
2024/01/28 13:45:47;;;;;;;;;;;;;;;24.33;23.88;100129.94;5103848;28;19957;-83
2024/01/28 13:48:13;;;;;;;;;;;;;;;24.21;23.83;100133.84;5111977;28;19946;-82
2024/01/28 13:50:40;;;;;;;;;;;;;;;24.68;23.38;100139.50;5108247;28;20016;-82
2024/01/28 13:53:10;;;;;;;;;;;;;;;25.60;22.44;100136.53;5109267;27;19961;-82
2024/01/28 13:55:36;;;;;;;;;;;;;;;25.89;22.03;100135.44;5099569;28;20262;-82
2024/01/28 13:58:03;;;;;;;;;;;;;;;25.77;22.19;100132.97;5098145;28;19924;-82
2024/01/28 14:00:29;;;;;;;;;;;;;;;25.91;22.25;100138.66;5099512;28;19920;-82
2024/01/28 14:02:55;;;;;;;;;;;;;;;25.83;21.91;100135.03;5100541;28;19934;-82
2024/01/28 14:05:21;;;;;;;;;;;;;;;26.46;21.61;100144.84;5096565;28;19994;-82
2024/01/28 14:07:47;;;;;;;;;;;;;;;27.05;21.32;100140.44;5098056;27;20445;-82
2024/01/28 14:10:13;;;;;;;;;;;;;;;27.42;20.82;100137.97;5103548;28;20338;-83
2024/01/28 14:12:39;;;;;;;;;;;;;;;27.35;20.24;100140.78;5099593;28;19938;-83
2024/01/28 14:15:06;;;;;;;;;;;;;;;27.37;20.49;100142.03;5096888;28;20380;-83
2024/01/28 14:17:33;;;;;;;;;;;;;;;27.55;20.47;100146.78;5106397;28;19923;-84
2024/01/28 14:19:59;;;;;;;;;;;;;;;27.22;20.37;100146.03;5107541;27;19915;-84
2024/01/28 14:22:28;;;;;;;;;;;;;;;27.14;20.45;100146.47;5105046;28;19920;-83
2024/01/28 14:24:54;;;;;;;;;;;;;;;26.90;20.95;100150.13;5102931;28;19949;-82
2024/01/28 14:27:20;;;;;;;;;;;;;;;26.95;20.56;100144.06;5106799;28;19972;-80
2024/01/28 14:29:46;;;;;;;;;;;;;;;26.89;20.90;100146.47;5101859;28;19966;-80
2024/01/28 14:32:12;;;;;;;;;;;;;;;27.03;20.58;100151.31;5108647;28;20348;-81
2024/01/28 14:34:38;;;;;;;;;;;;;;;27.07;20.72;100152.91;5103982;28;19924;-82
2024/01/28 14:37:05;;;;;;;;;;;;;;;27.04;20.42;100150.09;5098795;28;20003;-83
2024/01/28 14:39:32;;;;;;;;;;;;;;;27.10;20.56;100146.47;5098205;28;19972;-82
2024/01/28 14:42:02;;;;;;;;;;;;;;;27.00;20.73;100146.50;5105970;28;19924;-83
2024/01/28 14:44:28;;;;;;;;;;;;;;;27.07;20.60;100149.31;5097045;28;19920;-83
2024/01/28 14:46:55;;;;;;;;;;;;;;;27.12;20.74;100146.06;5099079;28;20412;-82
2024/01/28 14:49:21;;;;;;;;;;;;;;;27.17;20.46;100142.81;5103369;27;20303;-83
2024/01/28 14:51:47;;;;;;;;;;;;;;;26.88;20.75;100149.72;5103409;28;20311;-83
2024/01/28 14:54:13;;;;;;;;;;;;;;;26.58;20.93;100152.91;5102328;28;19992;-83
2024/01/28 14:56:39;;;;;;;;;;;;;;;26.62;20.97;100145.25;5104218;28;19973;-83
2024/01/28 14:59:06;;;;;;;;;;;;;;;26.47;21.20;100147.25;5095743;28;20273;-83
2024/01/28 15:01:32;;;;;;;;;;;;;;;25.80;21.63;100143.44;5093773;28;20444;-84
2024/01/28 15:03:58;;;;;;;;;;;;;;;26.20;21.52;100150.84;5100845;28;20369;-83
2024/01/28 15:06:24;;;;;;;;;;;;;;;26.55;21.04;100148.06;5096286;28;20277;-83
2024/01/28 15:08:50;;;;;;;;;;;;;;;26.71;20.89;100146.47;5104192;28;19916;-82
2024/01/28 15:11:16;;;;;;;;;;;;;;;27.10;20.63;100146.47;5103853;28;19936;-83
2024/01/28 15:13:43;;;;;;;;;;;;;;;27.32;20.30;100141.59;5103573;28;19942;-81
2024/01/28 15:16:09;;;;;;;;;;;;;;;27.51;20.12;100141.16;5103719;27;19920;-81
2024/01/28 15:18:35;;;;;;;;;;;;;;;27.61;19.91;100148.00;5102262;28;19957;-81
2024/01/28 15:21:01;;;;;;;;;;;;;;;27.72;19.93;100152.38;5105943;28;19920;-81
2024/01/28 15:23:27;;;;;;;;;;;;;;;27.78;19.83;100149.91;5102051;28;19999;-81